• Join FlightAware (Why Join?)
  • Login
  • US Flag 
06:10AM EST


 

Airport Tracker/Info


-or-


 

Live Flight TrackerFlight Track Log ✈ UAL4305 ✈ 12-Apr-2013 ✈ KCLL - KIAH

Flight Track Log - Related Links

Times and Time Zones

All times are in EDT time to prevent confusion due to time zone crossing. See the UAL4305 flight status page for this flight to view local times or setup timezone preferences in your user account.

Time Position Orientation Groundspeed Altitude Reporting Facility
EDT Latitude Longitude Course Direction KTS MPH feet Rate Location/Type
08:15AM 30.5667 -96.3567 141° Southeast 144 166 1,000  Level Houston Center
08:16AM 30.5256 -96.3175 141° Southeast 228 262 3,600 2,220 Climbing Houston Center
08:17AM 30.5156 -96.2628 102° East 246 283 5,200 2,700 Climbing Houston Center
08:17AM 30.5103 -96.2344 102° East 279 321 6,400 1,740 Climbing Houston Center
08:18AM 30.5011 -96.1722 100° East 278 320 7,000 600 Climbing Houston Center
08:18AM 30.4958 -96.1392 100° East 293 337 7,000  Level Houston Center
08:19AM 30.4869 -96.0806 100° East 287 330 7,000  Level Houston Center
08:20AM 30.4719 -95.9900 101° East 283 326 7,000  Level Houston Center
08:21AM 30.4581 -95.8997 100° East 284 327 7,000  Level Houston Center
08:22AM 30.4164 -95.8253 123° Southeast 291 335 7,000  Level Houston Center
08:22AM 30.3886 -95.7978 140° Southeast 305 351 7,000  Level Houston Center
08:23AM 30.3567 -95.7628 137° Southeast 292 336 7,000  Level Houston Center
08:24AM 30.2867 -95.6894 138° Southeast 283 326 7,000  Level Houston Center
08:24AM 30.2683 -95.6692 136° Southeast 277 319 7,000  Level Houston Center
08:25AM 30.2294 -95.6297 139° Southeast 278 320 7,000  Level Houston Center
08:26AM 30.1700 -95.5678 138° Southeast 284 327 7,000  Level Houston Center
08:26AM 30.1503 -95.5478 139° Southeast 291 335 7,000  Level Houston Center
08:27AM 30.1128 -95.5017 133° Southeast 291 335 7,000  Level Houston Center
08:27AM 30.1058 -95.4733 106° East 297 342 7,000  Level Houston Center
08:28AM 30.1067 -95.4092 89° East 289 333 7,000  Level Houston Center
08:28AM 30.1056 -95.3792 92° East 284 327 7,000  Level Houston Center
08:29AM 30.1067 -95.3183 89° East 284 327 7,000  Level Houston Center
08:29AM 30.1053 -95.2828 93° East 280 322 7,000  Level Houston Center
08:30AM 30.1056 -95.2286 90° East 280 322 7,000  Level Houston Center
08:30AM 30.1053 -95.1933 91° East 276 318 7,000 -420 Level Houston Center
08:31AM 30.0972 -95.1442 101° East 272 313 6,600 -1,620 Descending Houston Center
08:32AM 30.0303 -95.1375 175° South 264 304 4,100 -2,220 Descending Houston Center
08:33AM 29.9939 -95.2117 240° Southwest 227 261 2,100 -1,440 Descending Houston Center
08:34AM 29.9928 -95.2697 269° West 150 173 1,100 -840 Descending Houston Center
08:35AM 29.9936 -95.3111 271° West 151 174 400 -780 Descending Houston Center